createdAt,value
2023-01-06T00:00:05.866Z,1003.33
2023-01-06T00:01:04.850Z,1003.32
2023-01-06T00:02:04.846Z,1003.26
2023-01-06T00:03:04.842Z,1003.23
2023-01-06T00:04:04.886Z,1003.19
2023-01-06T00:05:04.809Z,1003.20
2023-01-06T00:06:04.802Z,1003.20
2023-01-06T00:07:04.793Z,1003.19
2023-01-06T00:08:04.804Z,1003.11
2023-01-06T00:09:05.821Z,1003.17
2023-01-06T00:10:04.797Z,1003.13
2023-01-06T00:11:04.772Z,1003.13
2023-01-06T00:12:04.856Z,1003.19
2023-01-06T00:13:04.769Z,1003.23
2023-01-06T00:14:04.760Z,1003.16
2023-01-06T00:15:04.778Z,1003.17
2023-01-06T00:16:04.765Z,1003.10
2023-01-06T00:17:04.739Z,1003.18
2023-01-06T00:18:04.732Z,1003.14
2023-01-06T00:19:04.738Z,1003.04
2023-01-06T00:20:04.720Z,1003.05
2023-01-06T00:21:04.727Z,1003.00
2023-01-06T00:22:04.712Z,1002.97
2023-01-06T00:23:04.704Z,1003.00
2023-01-06T00:24:04.708Z,1002.93
2023-01-06T00:25:04.693Z,1002.95
2023-01-06T00:26:04.669Z,1002.95
2023-01-06T00:27:04.669Z,1002.91
2023-01-06T00:28:04.761Z,1002.90
2023-01-06T00:29:04.671Z,1002.88
2023-01-06T00:30:04.647Z,1002.93
2023-01-06T00:31:04.691Z,1002.96
2023-01-06T00:32:04.636Z,1002.89
2023-01-06T00:33:04.625Z,1002.90
2023-01-06T00:34:04.649Z,1002.95
2023-01-06T00:35:04.637Z,1002.83
2023-01-06T00:36:04.636Z,1002.93
2023-01-06T00:37:04.607Z,1002.85
2023-01-06T00:38:04.590Z,1002.87
2023-01-06T00:39:04.600Z,1002.95
2023-01-06T00:40:04.641Z,1002.92
2023-01-06T00:41:04.611Z,1002.85
2023-01-06T00:42:04.568Z,1002.91
2023-01-06T00:43:04.563Z,1002.83
2023-01-06T00:44:04.657Z,1002.80
2023-01-06T00:45:04.567Z,1002.85
2023-01-06T00:46:04.585Z,1002.82
2023-01-06T00:47:04.551Z,1002.81
2023-01-06T00:48:04.522Z,1002.81
2023-01-06T00:49:05.841Z,1002.81
2023-01-06T00:50:05.565Z,1002.76
2023-01-06T00:51:04.510Z,1002.77
2023-01-06T00:52:04.569Z,1002.80
2023-01-06T00:53:04.517Z,1002.81
2023-01-06T00:54:04.523Z,1002.83
2023-01-06T00:55:04.485Z,1002.81
2023-01-06T00:56:04.509Z,1002.80
2023-01-06T00:57:04.487Z,1002.79
2023-01-06T00:58:04.467Z,1002.80
2023-01-06T00:59:04.487Z,1002.73
2023-01-06T01:00:04.546Z,1002.76
2023-01-06T01:01:04.653Z,1002.71
2023-01-06T01:02:04.564Z,1002.72
2023-01-06T01:03:04.540Z,1002.76
2023-01-06T01:04:04.429Z,1002.75
2023-01-06T01:05:04.428Z,1002.76
2023-01-06T01:06:04.418Z,1002.80
2023-01-06T01:07:04.397Z,1002.78
2023-01-06T01:08:04.418Z,1002.75
2023-01-06T01:09:04.400Z,1002.70
2023-01-06T01:10:04.388Z,1002.67
2023-01-06T01:11:04.398Z,1002.78
2023-01-06T01:12:04.390Z,1002.73
2023-01-06T01:13:04.385Z,1002.72
2023-01-06T01:14:04.384Z,1002.74
2023-01-06T01:15:04.355Z,1002.76
2023-01-06T01:16:04.487Z,1002.74
2023-01-06T01:17:04.334Z,1002.78
2023-01-06T01:18:04.334Z,1002.78
2023-01-06T01:19:04.320Z,1002.77
2023-01-06T01:20:04.334Z,1002.72
2023-01-06T01:21:04.304Z,1002.74
2023-01-06T01:22:04.290Z,1002.73
2023-01-06T01:23:04.318Z,1002.70
2023-01-06T01:24:04.317Z,1002.72
2023-01-06T01:25:04.312Z,1002.71
2023-01-06T01:26:04.267Z,1002.68
2023-01-06T01:27:04.260Z,1002.69
2023-01-06T01:28:04.297Z,1002.68
2023-01-06T01:29:04.249Z,1002.71
2023-01-06T01:30:04.232Z,1002.70
2023-01-06T01:31:04.289Z,1002.70
2023-01-06T01:32:04.322Z,1002.72
2023-01-06T01:33:04.270Z,1002.72
2023-01-06T01:34:04.235Z,1002.66
2023-01-06T01:35:04.211Z,1002.72
2023-01-06T01:36:04.207Z,1002.72
2023-01-06T01:37:04.192Z,1002.71
2023-01-06T01:38:04.206Z,1002.68
2023-01-06T01:39:04.230Z,1002.58
2023-01-06T01:40:04.186Z,1002.64
2023-01-06T01:41:05.219Z,1002.62
2023-01-06T01:42:04.179Z,1002.65
2023-01-06T01:43:04.184Z,1002.60
2023-01-06T01:44:04.178Z,1002.65
2023-01-06T01:45:04.140Z,1002.62
2023-01-06T01:46:04.167Z,1002.58
2023-01-06T01:47:04.187Z,1002.65
2023-01-06T01:48:04.237Z,1002.63
2023-01-06T01:49:04.110Z,1002.60
2023-01-06T01:50:04.147Z,1002.64
2023-01-06T01:51:04.105Z,1002.66
2023-01-06T01:52:04.090Z,1002.57
2023-01-06T01:53:04.117Z,1002.52
2023-01-06T01:54:04.084Z,1002.54
2023-01-06T01:55:04.072Z,1002.59
2023-01-06T01:56:04.112Z,1002.53
2023-01-06T01:57:04.058Z,1002.52
2023-01-06T01:58:04.055Z,1002.51
2023-01-06T01:59:04.082Z,1002.57
2023-01-06T02:00:04.034Z,1002.54
2023-01-06T02:01:04.126Z,1002.55
2023-01-06T02:02:04.190Z,1002.54
2023-01-06T02:03:04.127Z,1002.49
2023-01-06T02:04:04.115Z,1002.53
2023-01-06T02:05:04.051Z,1002.51
2023-01-06T02:06:04.002Z,1002.52
2023-01-06T02:07:04.007Z,1002.52
2023-01-06T02:08:04.009Z,1002.52
2023-01-06T02:09:04.017Z,1002.43
2023-01-06T02:10:03.975Z,1002.44
2023-01-06T02:11:03.984Z,1002.37
2023-01-06T02:12:03.971Z,1002.41
2023-01-06T02:13:03.955Z,1002.44
2023-01-06T02:14:03.973Z,1002.41
2023-01-06T02:15:03.934Z,1002.40
2023-01-06T02:16:04.000Z,1002.39
2023-01-06T02:17:03.950Z,1002.37
2023-01-06T02:18:03.920Z,1002.35
2023-01-06T02:19:03.928Z,1002.30
2023-01-06T02:20:04.036Z,1002.30
2023-01-06T02:21:03.900Z,1002.32
2023-01-06T02:22:03.895Z,1002.27
2023-01-06T02:23:03.918Z,1002.26
2023-01-06T02:24:03.884Z,1002.25
2023-01-06T02:25:03.873Z,1002.27
2023-01-06T02:26:03.926Z,1002.24
2023-01-06T02:27:03.879Z,1002.22
2023-01-06T02:28:03.849Z,1002.25
2023-01-06T02:29:03.910Z,1002.20
2023-01-06T02:30:03.844Z,1002.23
2023-01-06T02:31:03.887Z,1002.15
2023-01-06T02:32:03.901Z,1002.21
2023-01-06T02:33:03.821Z,1002.17
2023-01-06T02:34:03.834Z,1002.18
2023-01-06T02:35:03.845Z,1002.17
2023-01-06T02:36:03.905Z,1002.13
2023-01-06T02:37:03.785Z,1002.15
2023-01-06T02:38:03.817Z,1002.17
2023-01-06T02:39:03.801Z,1002.10
2023-01-06T02:40:03.789Z,1002.08
2023-01-06T02:41:03.831Z,1002.11
2023-01-06T02:42:03.759Z,1002.09
2023-01-06T02:43:03.750Z,1002.11
2023-01-06T02:44:03.785Z,1002.11
2023-01-06T02:45:03.758Z,1002.15
2023-01-06T02:46:03.758Z,1002.09
2023-01-06T02:47:03.744Z,1002.12
2023-01-06T02:48:03.713Z,1002.18
2023-01-06T02:49:03.729Z,1002.16
2023-01-06T02:50:03.724Z,1002.10
2023-01-06T02:51:03.692Z,1002.13
2023-01-06T02:52:03.828Z,1002.15
2023-01-06T02:53:03.726Z,1002.13
2023-01-06T02:54:03.701Z,1002.11
2023-01-06T02:55:03.669Z,1002.08
2023-01-06T02:56:03.686Z,1002.08
2023-01-06T02:57:03.652Z,1002.03
2023-01-06T02:58:03.673Z,1002.03
2023-01-06T02:59:03.686Z,1001.94
2023-01-06T03:00:03.641Z,1001.96
2023-01-06T03:01:03.664Z,1001.96
2023-01-06T03:02:03.814Z,1001.97
2023-01-06T03:03:03.633Z,1001.95
2023-01-06T03:04:03.614Z,1001.88
2023-01-06T03:05:03.665Z,1001.96
2023-01-06T03:06:03.588Z,1001.97
2023-01-06T03:07:03.580Z,1001.92
2023-01-06T03:08:03.739Z,1001.96
2023-01-06T03:09:03.576Z,1001.94
2023-01-06T03:10:03.581Z,1001.88
2023-01-06T03:11:03.572Z,1001.92
2023-01-06T03:12:03.601Z,1001.97
2023-01-06T03:13:03.546Z,1002.00
2023-01-06T03:14:03.560Z,1001.98
2023-01-06T03:15:03.598Z,1001.93
2023-01-06T03:16:03.574Z,1001.90
2023-01-06T03:17:03.513Z,1001.95
2023-01-06T03:18:03.632Z,1001.93
2023-01-06T03:19:03.517Z,1001.91
2023-01-06T03:20:03.496Z,1001.87
2023-01-06T03:21:03.559Z,1001.94
2023-01-06T03:22:03.510Z,1001.91
2023-01-06T03:23:03.482Z,1001.87
2023-01-06T03:24:03.617Z,1001.95
2023-01-06T03:25:03.456Z,1001.99
2023-01-06T03:26:03.478Z,1001.97
2023-01-06T03:27:03.515Z,1001.90
2023-01-06T03:28:03.449Z,1001.88
2023-01-06T03:29:03.448Z,1001.89
2023-01-06T03:30:03.497Z,1001.93
2023-01-06T03:31:03.491Z,1001.91
2023-01-06T03:32:03.425Z,1001.92
2023-01-06T03:33:03.476Z,1001.87
2023-01-06T03:34:03.401Z,1001.85
2023-01-06T03:35:03.406Z,1001.87
2023-01-06T03:36:03.451Z,1001.87
2023-01-06T03:37:03.397Z,1001.82
2023-01-06T03:38:03.369Z,1001.83
2023-01-06T03:39:03.410Z,1001.79
2023-01-06T03:40:03.455Z,1001.85
2023-01-06T03:41:03.361Z,1001.81
2023-01-06T03:42:03.410Z,1001.85
2023-01-06T03:43:03.347Z,1001.83
2023-01-06T03:44:03.327Z,1001.82
2023-01-06T03:45:03.394Z,1001.73
2023-01-06T03:46:03.328Z,1001.75
2023-01-06T03:47:03.337Z,1001.74
2023-01-06T03:48:03.339Z,1001.64
2023-01-06T03:49:03.321Z,1001.73
2023-01-06T03:50:03.330Z,1001.75
2023-01-06T03:51:03.366Z,1001.67
2023-01-06T03:52:03.299Z,1001.60
2023-01-06T03:53:03.286Z,1001.63
2023-01-06T03:54:03.307Z,1001.55
2023-01-06T03:55:03.266Z,1001.48
2023-01-06T03:56:03.363Z,1001.56
2023-01-06T03:57:03.324Z,1001.57
2023-01-06T03:58:03.267Z,1001.56
2023-01-06T03:59:03.246Z,1001.61
2023-01-06T04:00:03.302Z,1001.56
2023-01-06T04:01:03.268Z,1001.60
2023-01-06T04:02:03.237Z,1001.61
2023-01-06T04:03:03.243Z,1001.61
2023-01-06T04:04:03.394Z,1001.61
2023-01-06T04:05:03.191Z,1001.56
2023-01-06T04:06:03.186Z,1001.57
2023-01-06T04:07:03.288Z,1001.58
2023-01-06T04:08:03.207Z,1001.52
2023-01-06T04:09:03.184Z,1001.56
2023-01-06T04:10:03.211Z,1001.54
2023-01-06T04:11:03.157Z,1001.55
2023-01-06T04:12:03.254Z,1001.57
2023-01-06T04:13:03.165Z,1001.53
2023-01-06T04:14:03.145Z,1001.58
2023-01-06T04:15:03.175Z,1001.61
2023-01-06T04:16:03.192Z,1001.65
2023-01-06T04:17:03.129Z,1001.67
2023-01-06T04:18:03.137Z,1001.68
2023-01-06T04:19:03.119Z,1001.72
2023-01-06T04:20:03.100Z,1001.66
2023-01-06T04:21:03.150Z,1001.68
2023-01-06T04:22:03.083Z,1001.63
2023-01-06T04:23:03.088Z,1001.66
2023-01-06T04:24:03.125Z,1001.61
2023-01-06T04:25:03.046Z,1001.63
2023-01-06T04:26:03.124Z,1001.63
2023-01-06T04:27:03.046Z,1001.63
2023-01-06T04:28:03.155Z,1001.63
2023-01-06T04:29:03.093Z,1001.63
2023-01-06T04:30:03.025Z,1001.63
2023-01-06T04:31:03.029Z,1001.55
2023-01-06T04:32:03.061Z,1001.56
2023-01-06T04:33:03.007Z,1001.48
2023-01-06T04:34:03.003Z,1001.54
2023-01-06T04:35:03.038Z,1001.49
2023-01-06T04:36:02.994Z,1001.43
2023-01-06T04:37:02.980Z,1001.45
2023-01-06T04:38:03.038Z,1001.44
2023-01-06T04:39:02.977Z,1001.42
2023-01-06T04:40:02.959Z,1001.46
2023-01-06T04:41:03.040Z,1001.47
2023-01-06T04:42:02.939Z,1001.46
2023-01-06T04:43:02.936Z,1001.45
2023-01-06T04:44:03.029Z,1001.47
2023-01-06T04:45:02.922Z,1001.45
2023-01-06T04:46:02.996Z,1001.40
2023-01-06T04:47:02.962Z,1001.44
2023-01-06T04:48:02.907Z,1001.43
2023-01-06T04:49:02.892Z,1001.47
2023-01-06T04:50:02.971Z,1001.42
2023-01-06T04:51:02.890Z,1001.40
2023-01-06T04:52:02.876Z,1001.40
2023-01-06T04:53:02.942Z,1001.35
2023-01-06T04:54:02.869Z,1001.31
2023-01-06T04:55:02.855Z,1001.32
2023-01-06T04:56:02.928Z,1001.28
2023-01-06T04:57:02.845Z,1001.29
2023-01-06T04:58:02.836Z,1001.32
2023-01-06T04:59:02.922Z,1001.32
2023-01-06T05:00:02.830Z,1001.36
2023-01-06T05:01:02.888Z,1001.40
2023-01-06T05:02:02.949Z,1001.35
2023-01-06T05:03:02.806Z,1001.35
2023-01-06T05:04:02.903Z,1001.39
2023-01-06T05:05:02.801Z,1001.38
2023-01-06T05:06:02.832Z,1001.37
2023-01-06T05:07:02.778Z,1001.32
2023-01-06T05:08:02.768Z,1001.26
2023-01-06T05:09:02.797Z,1001.36
2023-01-06T05:10:02.762Z,1001.32
2023-01-06T05:11:02.788Z,1001.34
2023-01-06T05:12:02.813Z,1001.30
2023-01-06T05:13:02.753Z,1001.18
2023-01-06T05:14:02.741Z,1001.20
2023-01-06T05:15:02.782Z,1001.27
2023-01-06T05:16:02.915Z,1001.15
2023-01-06T05:17:02.705Z,1001.31
2023-01-06T05:18:02.830Z,1001.21
2023-01-06T05:19:02.691Z,1001.27
2023-01-06T05:20:03.696Z,1001.21
2023-01-06T05:21:02.688Z,1001.21
2023-01-06T05:22:02.688Z,1001.27
2023-01-06T05:23:02.674Z,1001.27
2023-01-06T05:24:02.723Z,1001.26
2023-01-06T05:25:02.651Z,1001.22
2023-01-06T05:26:02.661Z,1001.21
2023-01-06T05:27:02.709Z,1001.27
2023-01-06T05:28:02.632Z,1001.18
2023-01-06T05:29:02.644Z,1001.19
2023-01-06T05:30:02.681Z,1001.18
2023-01-06T05:31:02.606Z,1001.26
2023-01-06T05:32:02.739Z,1001.24
2023-01-06T05:33:02.666Z,1001.28
2023-01-06T05:34:02.611Z,1001.30
2023-01-06T05:35:02.600Z,1001.18
2023-01-06T05:36:02.641Z,1001.16
2023-01-06T05:37:02.592Z,1001.16
2023-01-06T05:38:02.590Z,1001.18
2023-01-06T05:39:02.642Z,1001.14
2023-01-06T05:40:02.562Z,1001.12
2023-01-06T05:41:02.573Z,1001.08
2023-01-06T05:42:02.626Z,1001.09
2023-01-06T05:43:02.543Z,1001.13
2023-01-06T05:44:02.553Z,1001.11
2023-01-06T05:45:02.577Z,1001.09
2023-01-06T05:46:02.535Z,1001.07
2023-01-06T05:47:02.529Z,1001.07
2023-01-06T05:48:03.620Z,1001.15
2023-01-06T05:49:02.509Z,1001.12
2023-01-06T05:50:02.494Z,1001.13
2023-01-06T05:51:02.489Z,1001.04
2023-01-06T05:52:02.532Z,1001.05
2023-01-06T05:53:02.469Z,1000.97
2023-01-06T05:54:02.477Z,1001.00
2023-01-06T05:55:02.500Z,1001.02
2023-01-06T05:56:02.466Z,1001.00
2023-01-06T05:57:02.442Z,1001.05
2023-01-06T05:58:02.491Z,1001.11
2023-01-06T05:59:02.441Z,1001.12
2023-01-06T06:00:02.440Z,1001.19
2023-01-06T06:01:02.471Z,1001.13
2023-01-06T06:02:02.452Z,1001.12
2023-01-06T06:03:02.409Z,1001.07
2023-01-06T06:04:02.547Z,1001.12
2023-01-06T06:05:02.452Z,1001.18
2023-01-06T06:06:02.431Z,1001.22
2023-01-06T06:07:02.377Z,1001.22
2023-01-06T06:08:02.433Z,1001.16
2023-01-06T06:09:02.368Z,1001.13
2023-01-06T06:10:02.404Z,1001.08
2023-01-06T06:11:02.445Z,1001.09
2023-01-06T06:12:02.392Z,1001.13
2023-01-06T06:13:02.342Z,1001.07
2023-01-06T06:14:02.337Z,1001.11
2023-01-06T06:15:02.380Z,1001.11
2023-01-06T06:16:02.331Z,1001.10
2023-01-06T06:17:02.320Z,1001.06
2023-01-06T06:18:02.394Z,1001.17
2023-01-06T06:19:02.318Z,1001.13
2023-01-06T06:20:02.425Z,1001.20
2023-01-06T06:21:02.318Z,1001.23
2023-01-06T06:22:02.283Z,1001.23
2023-01-06T06:23:02.295Z,1001.12
2023-01-06T06:24:02.257Z,1001.13
2023-01-06T06:25:02.277Z,1001.14
2023-01-06T06:26:02.274Z,1001.16
2023-01-06T06:27:02.255Z,1001.21
2023-01-06T06:28:02.236Z,1001.29
2023-01-06T06:29:02.250Z,1001.23
2023-01-06T06:30:02.241Z,1001.29
2023-01-06T06:31:02.287Z,1001.37
2023-01-06T06:32:02.226Z,1001.30
2023-01-06T06:33:02.218Z,1001.25
2023-01-06T06:34:02.214Z,1001.28
2023-01-06T06:35:02.188Z,1001.29
2023-01-06T06:36:02.314Z,1001.35
2023-01-06T06:37:02.198Z,1001.34
2023-01-06T06:38:02.209Z,1001.36
2023-01-06T06:39:02.178Z,1001.38
2023-01-06T06:40:02.164Z,1001.37
2023-01-06T06:41:02.176Z,1001.44
2023-01-06T06:42:02.147Z,1001.43
2023-01-06T06:43:02.327Z,1001.43
2023-01-06T06:44:02.132Z,1001.27
2023-01-06T06:45:02.125Z,1001.33
2023-01-06T06:46:02.172Z,1001.31
2023-01-06T06:47:02.163Z,1001.33
2023-01-06T06:48:02.113Z,1001.36
2023-01-06T06:49:02.102Z,1001.38
2023-01-06T06:50:02.085Z,1001.38
2023-01-06T06:51:02.084Z,1001.36
2023-01-06T06:52:02.182Z,1001.36
2023-01-06T06:53:02.630Z,1001.38
2023-01-06T06:54:02.058Z,1001.36
2023-01-06T06:55:02.077Z,1001.29
2023-01-06T06:56:02.047Z,1001.33
2023-01-06T06:57:02.039Z,1001.40
2023-01-06T06:58:02.045Z,1001.36
2023-01-06T06:59:02.044Z,1001.38
2023-01-06T07:00:02.069Z,1001.38
2023-01-06T07:01:02.044Z,1001.33
2023-01-06T07:02:02.137Z,1001.39
2023-01-06T07:03:01.996Z,1001.32
2023-01-06T07:04:01.974Z,1001.29
2023-01-06T07:05:01.994Z,1001.34
2023-01-06T07:06:02.152Z,1001.41
2023-01-06T07:07:01.979Z,1001.37
2023-01-06T07:08:02.068Z,1001.37
2023-01-06T07:09:01.961Z,1001.38
2023-01-06T07:10:02.031Z,1001.38
2023-01-06T07:11:01.942Z,1001.35
2023-01-06T07:12:01.972Z,1001.40
2023-01-06T07:13:03.405Z,1001.43
2023-01-06T07:14:01.941Z,1001.43
2023-01-06T07:15:01.923Z,1001.41
2023-01-06T07:16:01.978Z,1001.40
2023-01-06T07:17:01.910Z,1001.45
2023-01-06T07:18:01.934Z,1001.52
2023-01-06T07:19:01.904Z,1001.50
2023-01-06T07:20:01.920Z,1001.51
2023-01-06T07:21:01.888Z,1001.56
2023-01-06T07:22:01.859Z,1001.54
2023-01-06T07:23:02.902Z,1001.53
2023-01-06T07:24:01.961Z,1001.50
2023-01-06T07:25:01.898Z,1001.55
2023-01-06T07:26:01.858Z,1001.54
2023-01-06T07:27:01.843Z,1001.46
2023-01-06T07:28:01.865Z,1001.46
2023-01-06T07:29:01.825Z,1001.55
2023-01-06T07:30:01.844Z,1001.50
2023-01-06T07:31:01.961Z,1001.47
2023-01-06T07:32:01.824Z,1001.51
2023-01-06T07:33:01.820Z,1001.51
2023-01-06T07:34:01.814Z,1001.52
2023-01-06T07:35:01.807Z,1001.51
2023-01-06T07:36:01.789Z,1001.47
2023-01-06T07:37:01.767Z,1001.42
2023-01-06T07:38:01.777Z,1001.43
2023-01-06T07:39:02.768Z,1001.49
2023-01-06T07:40:01.855Z,1001.45
2023-01-06T07:41:01.781Z,1001.41
2023-01-06T07:42:01.734Z,1001.42
2023-01-06T07:43:01.744Z,1001.39
2023-01-06T07:44:01.746Z,1001.46
2023-01-06T07:45:02.818Z,1001.38
2023-01-06T07:46:01.785Z,1001.43
2023-01-06T07:47:01.709Z,1001.40
2023-01-06T07:48:01.688Z,1001.41
2023-01-06T07:49:01.736Z,1001.41
2023-01-06T07:50:01.680Z,1001.38
2023-01-06T07:51:01.714Z,1001.42
2023-01-06T07:52:01.673Z,1001.41
2023-01-06T07:53:01.669Z,1001.43
2023-01-06T07:54:01.720Z,1001.35
2023-01-06T07:55:01.664Z,1001.38
2023-01-06T07:56:01.741Z,1001.37
2023-01-06T07:57:01.680Z,1001.38
2023-01-06T07:58:01.630Z,1001.36
2023-01-06T07:59:01.650Z,1001.35
2023-01-06T08:00:01.634Z,1001.35
2023-01-06T08:01:01.638Z,1001.32
2023-01-06T08:02:01.784Z,1001.30
2023-01-06T08:03:01.688Z,1001.24
2023-01-06T08:04:01.609Z,1001.26
2023-01-06T08:05:01.606Z,1001.25
2023-01-06T08:06:01.588Z,1001.24
2023-01-06T08:07:01.572Z,1001.25
2023-01-06T08:08:01.573Z,1001.36
2023-01-06T08:09:01.617Z,1001.36
2023-01-06T08:10:01.572Z,1001.44
2023-01-06T08:11:01.564Z,1001.39
2023-01-06T08:12:01.638Z,1001.35
2023-01-06T08:13:01.531Z,1001.42
2023-01-06T08:14:01.526Z,1001.37
2023-01-06T08:15:01.536Z,1001.35
2023-01-06T08:16:01.537Z,1001.37
2023-01-06T08:17:01.503Z,1001.36
2023-01-06T08:18:01.519Z,1001.28
2023-01-06T08:19:01.496Z,1001.23
2023-01-06T08:20:01.569Z,1001.24
2023-01-06T08:21:01.480Z,1001.25
2023-01-06T08:22:01.468Z,1001.25
2023-01-06T08:23:01.466Z,1001.25
2023-01-06T08:24:01.464Z,1001.23
2023-01-06T08:25:01.492Z,1001.14
2023-01-06T08:26:01.471Z,1001.17
2023-01-06T08:27:01.494Z,1001.24
2023-01-06T08:28:01.532Z,1001.19
2023-01-06T08:29:01.431Z,1001.10
2023-01-06T08:30:01.429Z,1001.02
2023-01-06T08:31:01.429Z,1001.04
2023-01-06T08:32:10.499Z,1001.05
2023-01-06T08:33:03.417Z,1001.07
2023-01-06T08:34:01.382Z,1001.05
2023-01-06T08:35:01.397Z,1001.10
2023-01-06T08:36:01.401Z,1001.14
2023-01-06T08:37:01.375Z,1001.12
2023-01-06T08:38:01.365Z,1001.15
2023-01-06T08:39:01.381Z,1001.06
2023-01-06T08:40:01.368Z,1001.16
2023-01-06T08:41:01.389Z,1001.06
2023-01-06T08:42:01.340Z,1001.12
2023-01-06T08:43:01.346Z,1001.04
2023-01-06T08:44:01.455Z,1001.14
2023-01-06T08:45:01.328Z,1001.13
2023-01-06T08:46:01.374Z,1001.13
2023-01-06T08:47:01.310Z,1001.09
2023-01-06T08:48:01.298Z,1001.13
2023-01-06T08:49:01.285Z,1001.06
2023-01-06T08:50:01.298Z,1001.11
2023-01-06T08:51:01.283Z,1001.12
2023-01-06T08:52:01.290Z,1001.15
2023-01-06T08:53:01.254Z,1001.09
2023-01-06T08:54:01.271Z,1001.10
2023-01-06T08:55:01.253Z,1001.08
2023-01-06T08:56:01.249Z,1001.08
2023-01-06T08:57:01.282Z,1001.14
2023-01-06T08:58:01.238Z,1001.10
2023-01-06T08:59:01.222Z,1001.15
2023-01-06T09:00:01.325Z,1001.16
2023-01-06T09:01:01.217Z,1001.18
2023-01-06T09:02:01.376Z,1001.21
2023-01-06T09:03:01.243Z,1001.17
2023-01-06T09:04:01.187Z,1001.21
2023-01-06T09:05:01.226Z,1001.24
2023-01-06T09:06:01.211Z,1001.30
2023-01-06T09:07:01.186Z,1001.24
2023-01-06T09:08:01.186Z,1001.30
2023-01-06T09:09:01.168Z,1001.30
2023-01-06T09:10:01.151Z,1001.37
2023-01-06T09:11:01.163Z,1001.38
2023-01-06T09:12:01.174Z,1001.40
2023-01-06T09:13:01.139Z,1001.45
2023-01-06T09:14:01.126Z,1001.52
2023-01-06T09:15:01.105Z,1001.47
2023-01-06T09:16:01.269Z,1001.45
2023-01-06T09:17:01.102Z,1001.45
2023-01-06T09:18:01.149Z,1001.47
2023-01-06T09:19:01.098Z,1001.45
2023-01-06T09:20:01.105Z,1001.53
2023-01-06T09:21:01.070Z,1001.47
2023-01-06T09:22:01.275Z,1001.48
2023-01-06T09:23:01.105Z,1001.56
2023-01-06T09:24:01.056Z,1001.53
2023-01-06T09:25:01.084Z,1001.59
2023-01-06T09:26:01.057Z,1001.57
2023-01-06T09:27:01.044Z,1001.57
2023-01-06T09:28:01.052Z,1001.64
2023-01-06T09:29:01.020Z,1001.61
2023-01-06T09:30:01.021Z,1001.62
2023-01-06T09:31:01.041Z,1001.66
2023-01-06T09:32:01.101Z,1001.67
2023-01-06T09:33:01.042Z,1001.67
2023-01-06T09:34:01.002Z,1001.69
2023-01-06T09:35:00.977Z,1001.64
2023-01-06T09:36:00.992Z,1001.68
2023-01-06T09:37:00.988Z,1001.61
2023-01-06T09:38:01.675Z,1001.66
2023-01-06T09:39:00.953Z,1001.68
2023-01-06T09:40:00.977Z,1001.77
2023-01-06T09:41:00.956Z,1001.72
2023-01-06T09:42:00.929Z,1001.72
2023-01-06T09:43:00.969Z,1001.71
2023-01-06T09:44:00.928Z,1001.69
2023-01-06T09:45:00.916Z,1001.76
2023-01-06T09:46:00.929Z,1001.78
2023-01-06T09:47:00.909Z,1001.77
2023-01-06T09:48:01.037Z,1001.73
2023-01-06T09:49:00.967Z,1001.74
2023-01-06T09:50:01.777Z,1001.65
2023-01-06T09:51:00.885Z,1001.72
2023-01-06T09:52:00.909Z,1001.60
2023-01-06T09:53:00.938Z,1001.68
2023-01-06T09:54:00.889Z,1001.69
2023-01-06T09:55:00.885Z,1001.67
2023-01-06T09:56:00.889Z,1001.71
2023-01-06T09:57:00.848Z,1001.71
2023-01-06T09:58:00.833Z,1001.64
2023-01-06T09:59:00.862Z,1001.58
2023-01-06T10:00:00.820Z,1001.52
2023-01-06T10:01:00.806Z,1001.53
2023-01-06T10:02:00.939Z,1001.55
2023-01-06T10:03:00.808Z,1001.61
2023-01-06T10:04:01.006Z,1001.69
2023-01-06T10:05:00.815Z,1001.66
2023-01-06T10:06:00.840Z,1001.64
2023-01-06T10:07:00.789Z,1001.65
2023-01-06T10:08:00.785Z,1001.58
2023-01-06T10:09:00.794Z,1001.61
2023-01-06T10:10:00.761Z,1001.64
2023-01-06T10:11:00.755Z,1001.71
2023-01-06T10:12:00.752Z,1001.65
2023-01-06T10:13:00.742Z,1001.71
2023-01-06T10:14:00.735Z,1001.70
2023-01-06T10:15:00.743Z,1001.70
2023-01-06T10:16:00.778Z,1001.66
2023-01-06T10:17:00.732Z,1001.53
2023-01-06T10:18:00.712Z,1001.63
2023-01-06T10:19:00.699Z,1001.78
2023-01-06T10:20:00.898Z,1001.70
2023-01-06T10:21:00.706Z,1001.70
2023-01-06T10:22:00.735Z,1001.69
2023-01-06T10:23:00.794Z,1001.74
2023-01-06T10:24:00.697Z,1001.74
2023-01-06T10:25:00.772Z,1001.62
2023-01-06T10:26:00.699Z,1001.64
2023-01-06T10:27:00.676Z,1001.61
2023-01-06T10:28:00.643Z,1001.59
2023-01-06T10:29:01.689Z,1001.50
2023-01-06T10:30:00.660Z,1001.49
2023-01-06T10:31:00.709Z,1001.50
2023-01-06T10:32:00.643Z,1001.48
2023-01-06T10:33:00.629Z,1001.44
2023-01-06T10:34:00.638Z,1001.44
2023-01-06T10:35:00.680Z,1001.50
2023-01-06T10:36:00.708Z,1001.48
2023-01-06T10:37:00.622Z,1001.39
2023-01-06T10:38:00.610Z,1001.32
2023-01-06T10:39:00.602Z,1001.35
2023-01-06T10:40:00.621Z,1001.34
2023-01-06T10:41:00.627Z,1001.39
2023-01-06T10:42:00.566Z,1001.29
2023-01-06T10:43:00.643Z,1001.31
2023-01-06T10:44:00.555Z,1001.29
2023-01-06T10:45:00.574Z,1001.26
2023-01-06T10:46:00.582Z,1001.31
2023-01-06T10:47:00.594Z,1001.31
2023-01-06T10:48:00.551Z,1001.31
2023-01-06T10:49:00.511Z,1001.40
2023-01-06T10:50:00.557Z,1001.35
2023-01-06T10:51:00.542Z,1001.33
2023-01-06T10:52:00.510Z,1001.38
2023-01-06T10:53:00.491Z,1001.35
2023-01-06T10:54:00.484Z,1001.31
2023-01-06T10:55:00.468Z,1001.31
2023-01-06T10:56:00.507Z,1001.21
2023-01-06T10:57:00.505Z,1001.22
2023-01-06T10:58:00.468Z,1001.30
2023-01-06T10:59:00.452Z,1001.17
2023-01-06T11:00:00.488Z,1001.20
2023-01-06T11:01:00.473Z,1001.25
2023-01-06T11:02:00.627Z,1001.30
2023-01-06T11:03:14.390Z,1001.25
2023-01-06T11:04:02.446Z,1001.17
2023-01-06T11:05:00.415Z,1001.26
2023-01-06T11:06:00.391Z,1001.28
2023-01-06T11:07:00.425Z,1001.22
2023-01-06T11:08:00.547Z,1001.12
2023-01-06T11:09:00.402Z,1001.16
2023-01-06T11:10:00.432Z,1001.13
2023-01-06T11:11:00.379Z,1001.08
2023-01-06T11:12:00.377Z,1001.09
2023-01-06T11:13:00.401Z,1001.04
2023-01-06T11:14:00.410Z,1001.01
2023-01-06T11:15:00.359Z,1001.06
2023-01-06T11:16:00.388Z,1001.00
2023-01-06T11:17:00.353Z,1001.02
2023-01-06T11:18:00.382Z,1000.99
2023-01-06T11:19:00.373Z,1000.92
2023-01-06T11:20:00.320Z,1000.91
2023-01-06T11:21:00.342Z,1000.98
2023-01-06T11:22:00.362Z,1000.95
2023-01-06T11:23:00.361Z,1000.94
2023-01-06T11:24:00.396Z,1000.94
2023-01-06T11:25:00.281Z,1000.85
2023-01-06T11:26:00.278Z,1000.87
2023-01-06T11:27:00.285Z,1000.98
2023-01-06T11:28:00.299Z,1000.89
2023-01-06T11:29:00.283Z,1000.89
2023-01-06T11:30:00.349Z,1000.93
2023-01-06T11:31:00.313Z,1000.94
2023-01-06T11:32:00.255Z,1000.90
2023-01-06T11:33:00.244Z,1000.97
2023-01-06T11:34:00.290Z,1001.02
2023-01-06T11:35:00.252Z,1000.97
2023-01-06T11:36:00.303Z,1001.01
2023-01-06T11:37:00.231Z,1000.89
2023-01-06T11:38:00.257Z,1000.93
2023-01-06T11:39:00.320Z,1000.96
2023-01-06T11:40:05.534Z,1000.97
2023-01-06T11:41:02.241Z,1000.89
2023-01-06T11:42:00.212Z,1000.98
2023-01-06T11:43:00.259Z,1000.91
2023-01-06T11:44:00.172Z,1000.87
2023-01-06T11:45:00.159Z,1000.96
2023-01-06T11:46:00.271Z,1000.94
2023-01-06T11:47:00.175Z,1000.88
2023-01-06T11:48:00.188Z,1000.89
2023-01-06T11:49:00.173Z,1000.84
2023-01-06T11:50:00.290Z,1000.85
2023-01-06T11:51:01.335Z,1000.90
2023-01-06T11:52:00.337Z,1000.91
2023-01-06T11:53:00.288Z,1000.90
2023-01-06T11:54:00.160Z,1001.02
2023-01-06T11:55:00.220Z,1000.98
2023-01-06T11:56:00.220Z,1000.98
2023-01-06T11:57:00.098Z,1000.94
2023-01-06T11:58:00.147Z,1000.97
2023-01-06T11:59:00.124Z,1000.99
2023-01-06T12:00:00.227Z,1001.07
2023-01-06T12:01:00.130Z,1000.97
2023-01-06T12:02:00.167Z,1001.01
2023-01-06T12:03:00.188Z,1001.07
2023-01-06T12:04:00.112Z,1001.10
2023-01-06T12:05:00.064Z,1001.09